createdAt,value
2023-05-03T00:00:31.357Z,55.45
2023-05-03T00:02:58.351Z,55.29
2023-05-03T00:05:26.513Z,55.16
2023-05-03T00:07:53.460Z,54.99
2023-05-03T00:10:20.736Z,54.95
2023-05-03T00:12:47.772Z,54.94
2023-05-03T00:15:14.759Z,54.97
2023-05-03T00:17:41.778Z,54.78
2023-05-03T00:20:09.746Z,54.90
2023-05-03T00:22:36.968Z,54.81
2023-05-03T00:25:04.977Z,54.93
2023-05-03T00:27:34.301Z,55.01
2023-05-03T00:30:01.709Z,55.01
2023-05-03T00:32:29.088Z,54.91
2023-05-03T00:34:56.861Z,55.02
2023-05-03T00:37:24.492Z,55.08
2023-05-03T00:39:52.222Z,55.15
2023-05-03T00:42:19.451Z,55.51
2023-05-03T00:44:46.423Z,55.65
2023-05-03T00:47:13.527Z,56.04
2023-05-03T00:49:41.400Z,56.19
2023-05-03T00:52:09.333Z,56.49
2023-05-03T00:54:36.522Z,56.57
2023-05-03T00:57:04.724Z,56.86
2023-05-03T00:59:32.906Z,56.78
2023-05-03T01:02:00.265Z,56.81
2023-05-03T01:04:28.304Z,57.10
2023-05-03T01:07:17.478Z,57.39
2023-05-03T01:10:01.105Z,57.44
2023-05-03T01:12:47.581Z,57.83
2023-05-03T01:15:18.399Z,58.20
2023-05-03T01:17:57.669Z,58.47
2023-05-03T01:20:28.449Z,58.74
2023-05-03T01:22:59.143Z,58.75
2023-05-03T01:25:29.233Z,58.91
2023-05-03T01:27:56.214Z,59.15
2023-05-03T01:30:25.169Z,59.31
2023-05-03T01:33:18.535Z,59.48
2023-05-03T01:36:02.624Z,59.82
2023-05-03T01:38:31.356Z,59.98
2023-05-03T01:41:02.722Z,60.24
2023-05-03T01:43:31.652Z,60.36
2023-05-03T01:45:59.227Z,60.49
2023-05-03T01:48:26.268Z,61.01
2023-05-03T01:50:53.265Z,61.06
2023-05-03T01:53:20.444Z,61.45
2023-05-03T01:55:47.381Z,61.58
2023-05-03T01:58:14.359Z,61.92
2023-05-03T02:00:41.420Z,62.07
2023-05-03T02:03:08.541Z,62.62
2023-05-03T02:05:36.267Z,62.81
2023-05-03T02:08:03.742Z,63.37
2023-05-03T02:10:30.962Z,63.72
2023-05-03T02:12:58.313Z,63.77
2023-05-03T02:15:25.444Z,63.75
2023-05-03T02:17:54.341Z,64.11
2023-05-03T02:20:21.651Z,64.37
2023-05-03T02:22:48.620Z,64.57
2023-05-03T02:25:15.772Z,64.90
2023-05-03T02:27:42.753Z,65.64
2023-05-03T02:30:09.812Z,66.04
2023-05-03T02:32:39.731Z,66.53
2023-05-03T02:35:07.456Z,66.84
2023-05-03T02:37:35.249Z,67.38
2023-05-03T02:40:06.067Z,67.73
2023-05-03T02:42:33.348Z,67.89
2023-05-03T02:45:01.298Z,67.69
2023-05-03T02:47:32.865Z,67.98
2023-05-03T02:50:00.236Z,68.23
2023-05-03T02:52:27.635Z,68.42
2023-05-03T02:54:54.776Z,68.52
2023-05-03T02:57:22.303Z,68.82
2023-05-03T02:59:49.432Z,69.22
2023-05-03T03:02:16.537Z,69.40
2023-05-03T03:04:43.553Z,69.62
2023-05-03T03:07:10.590Z,69.71
2023-05-03T03:09:37.640Z,69.93
2023-05-03T03:12:05.825Z,69.85
2023-05-03T03:14:33.210Z,69.99
2023-05-03T03:17:01.213Z,70.20
2023-05-03T03:19:28.731Z,70.72
2023-05-03T03:21:55.748Z,70.71
2023-05-03T03:24:25.343Z,70.59
2023-05-03T03:26:53.159Z,70.58
2023-05-03T03:29:20.570Z,70.84
2023-05-03T03:31:47.821Z,71.06
2023-05-03T03:34:16.651Z,71.06
2023-05-03T03:36:43.735Z,71.25
2023-05-03T03:39:11.008Z,71.16
2023-05-03T03:41:38.198Z,71.17
2023-05-03T03:44:05.477Z,71.07
2023-05-03T03:46:32.886Z,71.03
2023-05-03T03:49:00.249Z,70.78
2023-05-03T03:51:27.558Z,70.54
2023-05-03T03:53:54.680Z,70.53
2023-05-03T03:56:22.507Z,70.39
2023-05-03T03:58:50.062Z,70.33
2023-05-03T04:01:17.150Z,70.17
2023-05-03T04:03:50.280Z,70.10
2023-05-03T04:06:17.776Z,69.63
2023-05-03T04:08:44.960Z,69.03
2023-05-03T04:11:12.639Z,68.31
2023-05-03T04:13:43.560Z,67.42
2023-05-03T04:16:11.073Z,67.19
2023-05-03T04:18:38.236Z,66.65
2023-05-03T04:21:06.104Z,65.80
2023-05-03T04:23:33.439Z,64.76
2023-05-03T04:26:02.535Z,63.77
2023-05-03T04:28:32.867Z,63.50
2023-05-03T04:31:00.358Z,63.70
2023-05-03T04:33:30.040Z,64.03
2023-05-03T04:36:00.493Z,63.41
2023-05-03T04:38:28.438Z,62.94
2023-05-03T04:40:57.255Z,62.30
2023-05-03T04:43:24.586Z,62.03
2023-05-03T04:45:54.827Z,61.51
2023-05-03T04:48:24.391Z,60.97
2023-05-03T04:50:52.621Z,60.36
2023-05-03T04:53:20.449Z,59.47
2023-05-03T04:55:52.758Z,59.09
2023-05-03T04:58:20.099Z,58.94
2023-05-03T05:00:47.563Z,57.99
2023-05-03T05:03:18.913Z,58.42
2023-05-03T05:05:46.527Z,57.48
2023-05-03T05:08:14.237Z,57.48
2023-05-03T05:10:45.397Z,56.23
2023-05-03T05:13:15.469Z,54.74
2023-05-03T05:15:42.531Z,54.76
2023-05-03T05:18:10.556Z,54.61
2023-05-03T05:20:38.752Z,52.95
2023-05-03T05:23:06.875Z,53.17
2023-05-03T05:25:34.020Z,52.85
2023-05-03T05:28:01.720Z,52.15
2023-05-03T05:30:29.167Z,51.44
2023-05-03T05:32:56.425Z,49.53
2023-05-03T05:35:23.594Z,49.50
2023-05-03T05:37:51.122Z,49.52
2023-05-03T05:40:19.220Z,49.59
2023-05-03T05:42:50.654Z,49.13
2023-05-03T05:45:18.324Z,48.01
2023-05-03T05:47:45.853Z,47.08
2023-05-03T05:50:18.267Z,45.96
2023-05-03T05:52:53.306Z,45.47
2023-05-03T05:55:21.329Z,45.11
2023-05-03T05:57:49.584Z,44.65
2023-05-03T06:00:17.680Z,44.02
2023-05-03T06:02:45.307Z,43.89
2023-05-03T06:05:16.430Z,43.47
2023-05-03T06:07:43.464Z,42.33
2023-05-03T06:10:10.699Z,42.11
2023-05-03T06:12:39.997Z,41.20
2023-05-03T06:15:13.262Z,41.91
2023-05-03T06:17:40.670Z,42.22
2023-05-03T06:20:11.987Z,40.89
2023-05-03T06:22:40.245Z,40.24
2023-05-03T06:25:08.307Z,40.07
2023-05-03T06:27:38.550Z,39.31
2023-05-03T06:30:07.135Z,38.69
2023-05-03T06:32:34.303Z,38.41
2023-05-03T06:35:02.321Z,37.73
2023-05-03T06:37:29.808Z,37.52
2023-05-03T06:39:57.249Z,37.50
2023-05-03T06:42:24.482Z,37.60
2023-05-03T06:45:04.071Z,37.69
2023-05-03T06:47:31.210Z,36.64
2023-05-03T06:49:58.308Z,36.28
2023-05-03T06:52:25.224Z,36.48
2023-05-03T06:54:54.258Z,36.51
2023-05-03T06:57:22.590Z,36.30
2023-05-03T06:59:49.673Z,34.90
2023-05-03T07:02:18.122Z,34.56
2023-05-03T07:04:45.080Z,34.53
2023-05-03T07:07:12.033Z,33.73
2023-05-03T07:09:43.273Z,32.33
2023-05-03T07:12:11.165Z,31.77
2023-05-03T07:14:39.782Z,31.26
2023-05-03T07:17:06.659Z,30.86
2023-05-03T07:19:33.546Z,30.93
2023-05-03T07:22:00.686Z,30.76
2023-05-03T07:24:27.724Z,30.37
2023-05-03T07:26:54.705Z,30.21
2023-05-03T07:29:21.802Z,29.02
2023-05-03T07:31:52.021Z,28.78
2023-05-03T07:34:21.077Z,30.06
2023-05-03T07:36:48.186Z,30.02
2023-05-03T07:39:15.228Z,29.86
2023-05-03T07:41:42.330Z,30.88
2023-05-03T07:44:09.450Z,31.99
2023-05-03T07:46:36.375Z,32.68
2023-05-03T07:49:04.423Z,32.79
2023-05-03T07:51:41.268Z,33.34
2023-05-03T07:54:08.260Z,33.42
2023-05-03T07:56:35.337Z,32.86
2023-05-03T07:59:09.416Z,32.92
2023-05-03T08:01:38.190Z,33.59
2023-05-03T08:04:05.833Z,33.66
2023-05-03T08:06:33.410Z,34.12
2023-05-03T08:09:00.927Z,34.03
2023-05-03T08:11:29.307Z,34.18
2023-05-03T08:13:56.345Z,33.91
2023-05-03T08:16:23.468Z,33.77
2023-05-03T08:18:50.564Z,33.60
2023-05-03T08:21:17.765Z,33.54
2023-05-03T08:23:45.180Z,34.29
2023-05-03T08:26:14.273Z,33.29
2023-05-03T08:28:42.200Z,33.52
2023-05-03T08:31:09.587Z,33.83
2023-05-03T08:33:37.428Z,34.59
2023-05-03T08:36:04.652Z,34.36
2023-05-03T08:38:31.592Z,34.32
2023-05-03T08:40:58.957Z,34.22
2023-05-03T08:43:27.872Z,34.02
2023-05-03T08:45:55.043Z,32.95
2023-05-03T08:48:22.544Z,32.70
2023-05-03T08:50:51.797Z,32.22
2023-05-03T08:53:18.751Z,32.20
2023-05-03T08:55:45.794Z,32.45
2023-05-03T08:58:13.432Z,33.05
2023-05-03T09:00:45.220Z,32.69
2023-05-03T09:03:13.140Z,32.90
2023-05-03T09:05:44.325Z,33.17
2023-05-03T09:08:12.887Z,33.75
2023-05-03T09:10:40.574Z,33.35
2023-05-03T09:13:08.142Z,33.14
2023-05-03T09:15:35.529Z,33.19
2023-05-03T09:18:09.793Z,32.53
2023-05-03T09:20:37.628Z,32.24
2023-05-03T09:23:04.542Z,31.41
2023-05-03T09:25:44.332Z,31.00
2023-05-03T09:28:11.896Z,31.21
2023-05-03T09:30:38.842Z,31.41
2023-05-03T09:33:06.198Z,31.51
2023-05-03T09:35:33.415Z,31.78
2023-05-03T09:38:00.625Z,31.52
2023-05-03T09:40:29.242Z,29.88
2023-05-03T09:43:12.035Z,30.02
2023-05-03T09:45:39.112Z,30.86
2023-05-03T09:48:07.344Z,31.23
2023-05-03T09:50:35.572Z,31.36
2023-05-03T09:53:04.052Z,30.57
2023-05-03T09:55:34.883Z,30.80
2023-05-03T09:58:04.430Z,30.77
2023-05-03T10:00:31.596Z,30.70
2023-05-03T10:03:00.319Z,29.60
2023-05-03T10:05:27.383Z,30.07
2023-05-03T10:07:54.441Z,30.62
2023-05-03T10:10:23.427Z,30.48
2023-05-03T10:12:54.151Z,30.31
2023-05-03T10:15:21.291Z,30.22
2023-05-03T10:17:50.393Z,30.94
2023-05-03T10:20:40.978Z,31.11
2023-05-03T10:23:10.154Z,30.40
2023-05-03T10:25:38.268Z,30.05
2023-05-03T10:28:06.315Z,30.88
2023-05-03T10:30:37.386Z,31.23
2023-05-03T10:33:14.336Z,31.45
2023-05-03T10:35:52.500Z,31.56
2023-05-03T10:38:24.822Z,31.72
2023-05-03T10:40:52.057Z,32.03
2023-05-03T10:43:31.210Z,31.71
2023-05-03T10:46:05.694Z,30.32
2023-05-03T10:48:33.471Z,30.91
2023-05-03T10:51:37.453Z,30.71
2023-05-03T10:54:04.664Z,30.62
2023-05-03T10:56:31.589Z,31.07
2023-05-03T10:58:59.206Z,30.70
2023-05-03T11:01:27.259Z,30.70
2023-05-03T11:04:05.584Z,31.52
2023-05-03T11:06:33.438Z,31.16
2023-05-03T11:09:00.609Z,31.18
2023-05-03T11:11:27.514Z,29.93
2023-05-03T11:13:54.659Z,29.71
2023-05-03T11:16:21.824Z,30.27
2023-05-03T11:18:48.921Z,30.53
2023-05-03T11:21:16.425Z,30.76
2023-05-03T11:23:43.570Z,29.79
2023-05-03T11:26:11.046Z,29.96
2023-05-03T11:28:42.180Z,29.54
2023-05-03T11:31:10.106Z,30.01
2023-05-03T11:33:38.327Z,30.05
2023-05-03T11:36:06.536Z,30.59
2023-05-03T11:38:33.886Z,30.79
2023-05-03T11:41:01.183Z,31.04
2023-05-03T11:43:29.043Z,31.81
2023-05-03T11:45:57.802Z,31.54
2023-05-03T11:48:26.367Z,31.00
2023-05-03T11:50:57.322Z,31.16
2023-05-03T11:53:24.769Z,31.16
2023-05-03T11:55:54.080Z,30.86
2023-05-03T11:58:25.257Z,30.39
2023-05-03T12:00:54.161Z,29.41
2023-05-03T12:03:24.642Z,30.07
2023-05-03T12:05:55.408Z,30.65
2023-05-03T12:08:29.952Z,30.26
2023-05-03T12:10:59.442Z,30.19
2023-05-03T12:13:39.370Z,30.31
2023-05-03T12:16:13.732Z,30.49
2023-05-03T12:18:51.204Z,30.27
2023-05-03T12:23:55.793Z,30.40
2023-05-03T12:26:23.426Z,30.16
2023-05-03T12:28:50.625Z,29.26
2023-05-03T12:31:18.492Z,28.57
2023-05-03T12:34:00.987Z,28.69
2023-05-03T12:36:35.520Z,28.39
2023-05-03T12:39:08.688Z,29.26
2023-05-03T12:44:10.169Z,30.09
2023-05-03T12:46:38.584Z,29.20
2023-05-03T12:49:08.578Z,29.88
2023-05-03T12:51:36.402Z,29.59
2023-05-03T12:54:10.137Z,28.91
2023-05-03T12:56:40.141Z,29.07
2023-05-03T12:59:39.372Z,29.45
2023-05-03T13:06:59.353Z,31.34
2023-05-03T13:09:37.193Z,31.73
2023-05-03T13:12:05.765Z,30.79
2023-05-03T13:14:32.822Z,30.90
2023-05-03T13:17:00.386Z,30.36
2023-05-03T13:19:28.764Z,29.48
2023-05-03T13:21:55.658Z,29.96
2023-05-03T13:24:22.525Z,30.08
2023-05-03T13:26:49.673Z,29.73
2023-05-03T13:29:16.668Z,30.36
2023-05-03T13:31:43.550Z,30.69
2023-05-03T13:34:10.483Z,30.56
2023-05-03T13:36:37.432Z,31.30
2023-05-03T13:39:04.468Z,31.32
2023-05-03T13:41:31.686Z,31.09
2023-05-03T13:43:58.579Z,30.71
2023-05-03T13:46:25.538Z,30.85
2023-05-03T13:48:52.913Z,30.58
2023-05-03T13:51:20.054Z,31.47
2023-05-03T13:53:46.926Z,31.98
2023-05-03T13:56:13.932Z,30.85
2023-05-03T13:58:41.257Z,30.94
2023-05-03T14:01:08.145Z,31.17
2023-05-03T14:03:35.295Z,31.24
2023-05-03T14:06:02.779Z,32.81
2023-05-03T14:08:30.261Z,33.73
2023-05-03T14:10:57.306Z,34.91
2023-05-03T14:13:25.039Z,35.10
2023-05-03T14:15:52.328Z,34.80
2023-05-03T14:18:19.503Z,34.39
2023-05-03T14:20:47.422Z,34.43
2023-05-03T14:23:14.315Z,34.60
2023-05-03T14:25:41.343Z,34.83
2023-05-03T14:28:08.269Z,34.84
2023-05-03T14:30:35.213Z,35.19
2023-05-03T14:33:02.104Z,35.10
2023-05-03T14:35:29.330Z,35.78
2023-05-03T14:37:56.283Z,35.61
2023-05-03T14:40:23.204Z,36.36
2023-05-03T14:42:50.245Z,35.95
2023-05-03T14:45:17.324Z,36.45
2023-05-03T14:47:44.305Z,36.15
2023-05-03T14:50:11.337Z,36.44
2023-05-03T14:52:38.614Z,37.01
2023-05-03T14:55:06.846Z,37.53
2023-05-03T14:57:34.207Z,37.47
2023-05-03T15:00:02.565Z,37.69
2023-05-03T15:02:29.961Z,37.81
2023-05-03T15:04:56.875Z,37.96
2023-05-03T15:07:24.082Z,38.51
2023-05-03T15:09:51.529Z,38.39
2023-05-03T15:12:18.448Z,38.45
2023-05-03T15:14:45.791Z,38.70
2023-05-03T15:17:13.024Z,39.19
2023-05-03T15:19:40.092Z,38.71
2023-05-03T15:22:07.199Z,38.73
2023-05-03T15:24:34.206Z,39.31
2023-05-03T15:27:02.916Z,38.66
2023-05-03T15:29:30.030Z,38.93
2023-05-03T15:31:56.930Z,38.82
2023-05-03T15:34:23.841Z,39.22
2023-05-03T15:36:50.855Z,39.52
2023-05-03T15:39:17.816Z,39.82
2023-05-03T15:41:45.852Z,40.21
2023-05-03T15:44:14.952Z,40.02
2023-05-03T15:46:43.102Z,40.11
2023-05-03T15:49:10.307Z,40.43
2023-05-03T15:51:37.635Z,40.47
2023-05-03T15:54:04.624Z,40.71
2023-05-03T15:56:31.605Z,40.47
2023-05-03T15:58:58.466Z,40.56
2023-05-03T16:01:25.566Z,40.89
2023-05-03T16:03:52.423Z,40.68
2023-05-03T16:06:19.551Z,40.93
2023-05-03T16:08:46.718Z,40.45
2023-05-03T16:11:13.735Z,40.11
2023-05-03T16:13:40.706Z,40.26
2023-05-03T16:16:07.824Z,40.77
2023-05-03T16:18:34.936Z,41.14
2023-05-03T16:21:02.837Z,41.33
2023-05-03T16:23:29.850Z,41.39
2023-05-03T16:25:56.867Z,41.53
2023-05-03T16:28:24.026Z,41.37
2023-05-03T16:30:51.910Z,41.57
2023-05-03T16:33:18.798Z,42.41
2023-05-03T16:35:45.922Z,42.21
2023-05-03T16:38:12.870Z,42.55
2023-05-03T16:40:40.617Z,42.47
2023-05-03T16:43:07.962Z,43.20
2023-05-03T16:45:34.977Z,44.02
2023-05-03T16:48:04.797Z,44.76
2023-05-03T16:50:33.342Z,45.57
2023-05-03T16:53:00.213Z,46.41
2023-05-03T16:55:27.131Z,46.44
2023-05-03T16:57:54.188Z,45.81
2023-05-03T17:00:22.011Z,45.13
2023-05-03T17:02:49.204Z,45.82
2023-05-03T17:05:16.521Z,46.18
2023-05-03T17:07:43.534Z,46.90
2023-05-03T17:10:10.615Z,47.82
2023-05-03T17:12:37.694Z,48.43
2023-05-03T17:15:04.964Z,48.73
2023-05-03T17:17:32.826Z,49.13
2023-05-03T17:20:00.063Z,49.05
2023-05-03T17:22:28.254Z,49.17
2023-05-03T17:24:58.036Z,49.37
2023-05-03T17:27:25.409Z,49.67
2023-05-03T17:29:52.397Z,50.16
2023-05-03T17:32:19.300Z,50.53
2023-05-03T17:34:46.287Z,50.94
2023-05-03T17:37:13.201Z,50.97
2023-05-03T17:39:40.147Z,51.33
2023-05-03T17:42:08.223Z,51.22
2023-05-03T17:44:35.079Z,51.47
2023-05-03T17:47:02.451Z,52.17
2023-05-03T17:49:33.136Z,52.17
2023-05-03T17:52:00.253Z,52.69
2023-05-03T17:54:30.443Z,53.14
2023-05-03T17:56:57.416Z,52.36
2023-05-03T17:59:24.289Z,52.48
2023-05-03T18:01:51.231Z,52.29
2023-05-03T18:04:18.157Z,50.64
2023-05-03T18:06:45.164Z,50.57
2023-05-03T18:09:13.332Z,50.08
2023-05-03T18:11:41.465Z,48.99
2023-05-03T18:14:08.481Z,47.17
2023-05-03T18:16:36.112Z,40.94
2023-05-03T18:19:03.910Z,38.23
2023-05-03T18:21:30.915Z,36.17
2023-05-03T18:23:58.102Z,37.42
2023-05-03T18:26:25.557Z,41.35
2023-05-03T18:28:53.618Z,45.54
2023-05-03T18:31:21.606Z,47.35
2023-05-03T18:33:48.999Z,49.12
2023-05-03T18:36:16.957Z,50.92
2023-05-03T18:38:44.403Z,52.77
2023-05-03T18:41:16.110Z,54.67
2023-05-03T18:43:43.713Z,56.17
2023-05-03T18:46:10.961Z,57.55
2023-05-03T18:48:37.780Z,59.17
2023-05-03T18:51:04.953Z,60.81
2023-05-03T18:53:34.391Z,62.14
2023-05-03T18:56:07.108Z,63.59
2023-05-03T18:58:34.010Z,64.85
2023-05-03T19:01:01.339Z,65.80
2023-05-03T19:03:29.693Z,66.82
2023-05-03T19:05:59.771Z,67.33
2023-05-03T19:08:26.763Z,68.30
2023-05-03T19:10:53.751Z,69.36
2023-05-03T19:13:20.781Z,70.69
2023-05-03T19:15:48.065Z,72.24
2023-05-03T19:18:16.636Z,73.23
2023-05-03T19:20:43.997Z,74.22
2023-05-03T19:23:11.080Z,75.26
2023-05-03T19:25:38.171Z,76.12
2023-05-03T19:28:06.879Z,76.87
2023-05-03T19:30:34.214Z,77.56
2023-05-03T19:33:01.424Z,77.94
2023-05-03T19:35:28.420Z,78.52
2023-05-03T19:37:56.116Z,79.12
2023-05-03T19:40:24.860Z,79.43
2023-05-03T19:42:52.651Z,79.82
2023-05-03T19:45:19.876Z,80.41
2023-05-03T19:47:47.667Z,80.77
2023-05-03T19:50:14.723Z,81.17
2023-05-03T19:52:42.336Z,81.44
2023-05-03T19:55:09.513Z,82.00
2023-05-03T19:57:36.633Z,82.27
2023-05-03T20:00:05.589Z,82.31
2023-05-03T20:02:34.024Z,82.36
2023-05-03T20:05:01.154Z,82.63
2023-05-03T20:07:28.073Z,82.64
2023-05-03T20:09:54.973Z,83.04
2023-05-03T20:12:21.807Z,83.18
2023-05-03T20:14:49.186Z,83.37
2023-05-03T20:17:16.396Z,83.80
2023-05-03T20:19:44.007Z,84.01
2023-05-03T20:22:11.493Z,84.39
2023-05-03T20:24:38.341Z,84.51
2023-05-03T20:27:05.297Z,84.37
2023-05-03T20:29:32.357Z,84.27
2023-05-03T20:31:59.461Z,83.90
2023-05-03T20:34:27.206Z,83.65
2023-05-03T20:36:54.643Z,83.51
2023-05-03T20:39:21.532Z,83.54
2023-05-03T20:41:48.455Z,83.53
2023-05-03T20:44:15.692Z,83.56
2023-05-03T20:46:42.768Z,83.74
2023-05-03T20:49:10.340Z,83.85
2023-05-03T20:51:37.495Z,84.25
2023-05-03T20:54:04.510Z,84.46
2023-05-03T20:56:33.501Z,84.80
2023-05-03T20:59:00.875Z,85.03
2023-05-03T21:01:27.820Z,85.54
2023-05-03T21:03:56.861Z,86.22
2023-05-03T21:06:23.875Z,87.16
2023-05-03T21:08:52.819Z,87.78
2023-05-03T21:11:19.826Z,88.75
2023-05-03T21:13:46.782Z,89.75
2023-05-03T21:16:13.709Z,90.22
2023-05-03T21:18:40.806Z,90.94
2023-05-03T21:21:07.748Z,91.25
2023-05-03T21:23:34.760Z,91.34
2023-05-03T21:26:01.705Z,91.81
2023-05-03T21:28:30.580Z,92.61
2023-05-03T21:30:57.538Z,93.38
2023-05-03T21:33:24.636Z,94.28
2023-05-03T21:35:51.647Z,95.31
2023-05-03T21:38:18.702Z,95.51
2023-05-03T21:40:47.289Z,95.60
2023-05-03T21:43:14.408Z,95.66
2023-05-03T21:45:43.404Z,96.06
2023-05-03T21:48:10.460Z,96.30
2023-05-03T21:50:40.559Z,96.88
2023-05-03T21:53:07.398Z,97.06
2023-05-03T21:55:34.457Z,97.44
2023-05-03T21:58:01.601Z,97.93
2023-05-03T22:00:29.533Z,98.52
2023-05-03T22:02:56.686Z,98.93
2023-05-03T22:05:24.431Z,99.18
2023-05-03T22:07:51.451Z,99.40
2023-05-03T22:10:18.890Z,99.61
2023-05-03T22:12:46.352Z,99.98
2023-05-03T22:15:13.454Z,100.00
2023-05-03T22:17:40.487Z,100.00
2023-05-03T22:20:08.499Z,100.00
2023-05-03T22:22:35.663Z,100.00
2023-05-03T22:25:02.633Z,100.00
2023-05-03T22:27:29.499Z,100.00
2023-05-03T22:29:56.939Z,100.00
2023-05-03T22:32:23.931Z,100.00
2023-05-03T22:34:50.910Z,100.00
2023-05-03T22:37:17.905Z,100.00
2023-05-03T22:39:44.798Z,100.00
2023-05-03T22:42:11.743Z,100.00
2023-05-03T22:44:38.652Z,100.00
2023-05-03T22:47:05.656Z,100.00
2023-05-03T22:49:32.621Z,100.00
2023-05-03T22:51:59.579Z,100.00
2023-05-03T22:54:27.107Z,100.00
2023-05-03T22:56:54.793Z,100.00
2023-05-03T22:59:21.683Z,100.00
2023-05-03T23:01:49.770Z,100.00
2023-05-03T23:04:16.926Z,100.00
2023-05-03T23:06:44.355Z,100.00
2023-05-03T23:09:11.956Z,100.00
2023-05-03T23:11:38.913Z,100.00
2023-05-03T23:14:06.302Z,100.00
2023-05-03T23:16:33.526Z,100.00
2023-05-03T23:19:00.448Z,100.00
2023-05-03T23:21:27.566Z,100.00
2023-05-03T23:23:54.682Z,100.00
2023-05-03T23:26:21.912Z,100.00
2023-05-03T23:28:49.439Z,100.00
2023-05-03T23:31:17.159Z,100.00
2023-05-03T23:33:44.517Z,100.00
2023-05-03T23:36:11.541Z,100.00
2023-05-03T23:38:38.534Z,100.00
2023-05-03T23:41:05.495Z,100.00
2023-05-03T23:43:32.896Z,100.00
2023-05-03T23:46:00.001Z,100.00
2023-05-03T23:48:26.962Z,100.00
2023-05-03T23:50:54.098Z,100.00
2023-05-03T23:53:21.062Z,100.00
2023-05-03T23:55:48.077Z,100.00
2023-05-03T23:58:15.133Z,100.00
